createdAt,value
2023-03-05T00:01:11.328Z,3.00
2023-03-05T00:03:37.936Z,2.90
2023-03-05T00:06:05.181Z,2.90
2023-03-05T00:08:32.505Z,2.90
2023-03-05T00:11:00.651Z,2.90
2023-03-05T00:13:27.476Z,2.80
2023-03-05T00:15:54.373Z,2.80
2023-03-05T00:18:21.713Z,2.80
2023-03-05T00:20:48.244Z,2.90
2023-03-05T00:23:14.971Z,2.80
2023-03-05T00:25:41.741Z,2.90
2023-03-05T00:28:08.705Z,2.90
2023-03-05T00:30:35.591Z,2.90
2023-03-05T00:33:02.257Z,2.80
2023-03-05T00:35:28.803Z,2.80
2023-03-05T00:37:55.519Z,2.80
2023-03-05T00:40:22.338Z,2.70
2023-03-05T00:42:49.309Z,2.80
2023-03-05T00:45:15.835Z,2.70
2023-03-05T00:47:42.381Z,2.70
2023-03-05T00:50:09.839Z,2.70
2023-03-05T00:52:36.451Z,2.80
2023-03-05T00:55:03.106Z,2.80
2023-03-05T00:57:29.630Z,2.70
2023-03-05T00:59:56.206Z,2.70
2023-03-05T01:02:22.813Z,2.70
2023-03-05T01:04:49.585Z,2.70
2023-03-05T01:07:16.233Z,2.70
2023-03-05T01:09:42.797Z,2.70
2023-03-05T01:12:09.486Z,2.70
2023-03-05T01:14:36.726Z,2.60
2023-03-05T01:17:03.660Z,2.60
2023-03-05T01:19:30.256Z,2.70
2023-03-05T01:21:57.111Z,2.60
2023-03-05T01:24:23.761Z,2.60
2023-03-05T01:26:50.732Z,2.60
2023-03-05T01:29:17.648Z,2.60
2023-03-05T01:31:44.389Z,2.60
2023-03-05T01:34:11.335Z,2.50
2023-03-05T01:36:38.006Z,2.40
2023-03-05T01:39:07.302Z,2.40
2023-03-05T01:41:34.829Z,2.30
2023-03-05T01:44:01.343Z,2.20
2023-03-05T01:46:35.192Z,2.20
2023-03-05T01:49:12.128Z,2.20
2023-03-05T01:51:45.656Z,2.10
2023-03-05T01:54:15.356Z,2.10
2023-03-05T01:56:42.321Z,2.00
2023-03-05T01:59:09.093Z,2.00
2023-03-05T02:01:45.476Z,2.00
2023-03-05T02:04:16.386Z,1.90
2023-03-05T02:06:47.144Z,1.80
2023-03-05T02:09:13.936Z,1.80
2023-03-05T02:11:40.553Z,1.80
2023-03-05T02:14:10.111Z,1.80
2023-03-05T02:16:41.591Z,1.80
2023-03-05T02:19:20.568Z,1.80
2023-03-05T02:21:54.274Z,1.80
2023-03-05T02:24:39.058Z,1.80
2023-03-05T02:27:06.138Z,1.80
2023-03-05T02:29:34.830Z,1.80
2023-03-05T02:32:01.713Z,1.70
2023-03-05T02:34:28.280Z,1.70
2023-03-05T02:36:55.659Z,1.70
2023-03-05T02:39:22.356Z,1.80
2023-03-05T02:41:50.206Z,1.80
2023-03-05T02:44:16.737Z,1.80
2023-03-05T02:46:43.301Z,1.80
2023-03-05T02:49:09.951Z,1.80
2023-03-05T02:51:36.571Z,1.80
2023-03-05T02:54:03.150Z,1.70
2023-03-05T02:56:29.699Z,1.80
2023-03-05T02:58:56.189Z,1.80
2023-03-05T03:01:23.074Z,1.80
2023-03-05T03:03:49.562Z,1.80
2023-03-05T03:06:16.118Z,1.80
2023-03-05T03:08:42.876Z,1.90
2023-03-05T03:11:12.762Z,1.90
2023-03-05T03:13:39.684Z,1.90
2023-03-05T03:16:09.152Z,1.90
2023-03-05T03:18:36.215Z,1.90
2023-03-05T03:21:03.589Z,1.90
2023-03-05T03:23:30.540Z,1.90
2023-03-05T03:25:57.572Z,1.80
2023-03-05T03:28:24.450Z,1.80
2023-03-05T03:30:51.269Z,1.80
2023-03-05T03:33:18.325Z,1.70
2023-03-05T03:35:46.672Z,1.80
2023-03-05T03:38:13.898Z,1.80
2023-03-05T03:40:42.967Z,1.80
2023-03-05T03:43:09.703Z,1.80
2023-03-05T03:45:40.565Z,1.70
2023-03-05T03:48:07.048Z,1.60
2023-03-05T03:50:33.497Z,1.60
2023-03-05T03:53:00.144Z,1.50
2023-03-05T03:55:26.614Z,1.50
2023-03-05T03:57:53.814Z,1.50
2023-03-05T04:00:20.570Z,1.40
2023-03-05T04:02:47.076Z,1.40
2023-03-05T04:05:13.597Z,1.40
2023-03-05T04:07:40.093Z,1.40
2023-03-05T04:10:07.060Z,1.40
2023-03-05T04:12:33.656Z,1.30
2023-03-05T04:15:00.115Z,1.30
2023-03-05T04:17:26.818Z,1.20
2023-03-05T04:19:53.270Z,1.20
2023-03-05T04:22:19.763Z,1.20
2023-03-05T04:24:46.727Z,1.10
2023-03-05T04:27:13.224Z,1.10
2023-03-05T04:29:39.696Z,1.10
2023-03-05T04:32:06.381Z,1.00
2023-03-05T04:34:33.379Z,0.90
2023-03-05T04:36:59.846Z,0.90
2023-03-05T04:39:26.355Z,0.90
2023-03-05T04:41:53.072Z,0.90
2023-03-05T04:44:19.757Z,0.80
2023-03-05T04:46:46.518Z,0.80
2023-03-05T04:49:13.175Z,0.80
2023-03-05T04:51:39.690Z,0.80
2023-03-05T04:54:06.208Z,0.90
2023-03-05T04:56:32.652Z,1.00
2023-03-05T04:58:59.165Z,1.00
2023-03-05T05:01:25.880Z,1.00
2023-03-05T05:03:53.185Z,0.90
2023-03-05T05:06:19.657Z,0.90
2023-03-05T05:08:46.375Z,0.80
2023-03-05T05:11:14.650Z,0.80
2023-03-05T05:13:41.117Z,0.90
2023-03-05T05:16:08.852Z,0.80
2023-03-05T05:18:35.552Z,0.80
2023-03-05T05:21:02.017Z,0.80
2023-03-05T05:23:28.640Z,0.70
2023-03-05T05:26:02.696Z,0.80
2023-03-05T05:28:29.608Z,0.80
2023-03-05T05:30:56.992Z,0.70
2023-03-05T05:33:24.476Z,0.70
2023-03-05T05:35:51.389Z,0.70
2023-03-05T05:38:17.849Z,0.80
2023-03-05T05:40:44.665Z,0.70
2023-03-05T05:43:11.200Z,0.70
2023-03-05T05:45:38.645Z,0.70
2023-03-05T05:48:05.526Z,0.70
2023-03-05T05:50:32.327Z,0.80
2023-03-05T05:52:58.799Z,0.80
2023-03-05T05:55:25.578Z,0.80
2023-03-05T05:57:52.076Z,0.80
2023-03-05T06:00:18.940Z,0.80
2023-03-05T06:02:45.803Z,0.80
2023-03-05T06:05:14.800Z,0.90
2023-03-05T06:07:41.824Z,0.90
2023-03-05T06:10:10.035Z,1.00
2023-03-05T06:12:36.594Z,1.00
2023-03-05T06:15:03.499Z,1.20
2023-03-05T06:17:31.100Z,1.20
2023-03-05T06:19:58.441Z,1.30
2023-03-05T06:22:25.025Z,1.30
2023-03-05T06:24:51.474Z,1.50
2023-03-05T06:27:18.321Z,1.50
2023-03-05T06:29:44.764Z,1.60
2023-03-05T06:32:11.256Z,1.70
2023-03-05T06:34:37.789Z,2.00
2023-03-05T06:37:04.239Z,1.90
2023-03-05T06:39:31.890Z,2.30
2023-03-05T06:41:58.647Z,2.20
2023-03-05T06:44:25.714Z,2.10
2023-03-05T06:46:52.335Z,2.20
2023-03-05T06:49:18.822Z,2.20
2023-03-05T06:51:45.354Z,2.30
2023-03-05T06:54:14.368Z,2.30
2023-03-05T06:56:43.635Z,2.30
2023-03-05T06:59:11.211Z,2.40
2023-03-05T07:01:37.902Z,2.40
2023-03-05T07:04:06.184Z,2.60
2023-03-05T07:06:35.553Z,2.60
2023-03-05T07:09:03.665Z,2.70
2023-03-05T07:11:31.577Z,2.70
2023-03-05T07:13:58.732Z,2.80
2023-03-05T07:16:28.153Z,2.80
2023-03-05T07:18:57.089Z,2.60
2023-03-05T07:21:25.973Z,2.60
2023-03-05T07:23:57.141Z,2.60
2023-03-05T07:26:24.271Z,2.50
2023-03-05T07:28:50.741Z,2.60
2023-03-05T07:31:23.109Z,2.60
2023-03-05T07:33:50.613Z,2.70
2023-03-05T07:36:17.813Z,2.70
2023-03-05T07:38:44.839Z,2.70
2023-03-05T07:41:14.641Z,2.80
2023-03-05T07:43:41.110Z,2.80
2023-03-05T07:46:10.038Z,3.00
2023-03-05T07:48:36.565Z,3.20
2023-03-05T07:51:22.747Z,3.40
2023-03-05T07:53:50.575Z,3.30
2023-03-05T07:56:35.530Z,3.50
2023-03-05T07:59:08.020Z,3.70
2023-03-05T08:01:36.405Z,4.00
2023-03-05T08:04:04.677Z,3.90
2023-03-05T08:06:31.578Z,3.70
2023-03-05T08:08:58.679Z,3.50
2023-03-05T08:11:26.341Z,3.40
2023-03-05T08:13:53.122Z,3.70
2023-03-05T08:16:21.806Z,3.80
2023-03-05T08:18:49.695Z,4.20
2023-03-05T08:21:18.618Z,5.10
2023-03-05T08:23:45.089Z,7.90
2023-03-05T08:26:16.951Z,10.00
2023-03-05T08:28:46.247Z,11.40
2023-03-05T08:31:14.726Z,13.50
2023-03-05T08:33:41.874Z,10.80
2023-03-05T08:36:09.515Z,9.60
2023-03-05T08:38:36.594Z,7.20
2023-03-05T08:41:03.924Z,7.50
2023-03-05T08:43:31.154Z,7.00
2023-03-05T08:45:59.397Z,6.30
2023-03-05T08:48:25.930Z,7.50
2023-03-05T08:50:53.251Z,9.30
2023-03-05T08:53:20.043Z,6.10
2023-03-05T08:56:14.277Z,5.80
2023-03-05T08:58:41.189Z,6.50
2023-03-05T09:01:07.786Z,6.30
2023-03-05T09:03:34.348Z,5.70
2023-03-05T09:06:02.607Z,6.10
2023-03-05T09:08:30.162Z,6.20
2023-03-05T09:10:57.007Z,6.00
2023-03-05T09:13:24.410Z,6.10
2023-03-05T09:15:55.779Z,5.80
2023-03-05T09:18:22.414Z,5.20
2023-03-05T09:20:48.991Z,5.20
2023-03-05T09:23:15.495Z,5.60
2023-03-05T09:25:48.190Z,5.20
2023-03-05T09:28:14.848Z,4.90
2023-03-05T09:30:41.801Z,4.80
2023-03-05T09:33:11.654Z,4.90
2023-03-05T09:35:38.616Z,4.70
2023-03-05T09:38:05.557Z,4.80
2023-03-05T09:40:42.944Z,4.70
2023-03-05T09:43:46.409Z,5.10
2023-03-05T09:46:31.612Z,5.40
2023-03-05T09:49:26.718Z,5.70
2023-03-05T09:52:01.894Z,5.70
2023-03-05T09:54:37.242Z,6.60
2023-03-05T09:57:09.020Z,6.20
2023-03-05T09:59:48.036Z,5.80
2023-03-05T10:02:37.049Z,5.30
2023-03-05T10:05:16.103Z,5.10
2023-03-05T10:07:45.921Z,4.80
2023-03-05T10:10:19.496Z,4.70
2023-03-05T10:12:51.100Z,4.70
2023-03-05T10:15:35.740Z,4.70
2023-03-05T10:18:25.957Z,4.90
2023-03-05T10:21:03.384Z,5.30
2023-03-05T10:23:54.935Z,5.20
2023-03-05T10:26:31.160Z,5.00
2023-03-05T10:29:03.446Z,5.00
2023-03-05T10:31:38.364Z,4.70
2023-03-05T10:34:15.036Z,5.00
2023-03-05T10:37:15.464Z,4.70
2023-03-05T10:40:13.002Z,4.90
2023-03-05T10:43:13.008Z,5.20
2023-03-05T10:45:43.576Z,5.10
2023-03-05T10:48:20.784Z,5.20
2023-03-05T10:50:56.784Z,5.20
2023-03-05T10:53:38.463Z,5.10
2023-03-05T10:56:07.308Z,5.50
2023-03-05T10:58:33.945Z,5.70
2023-03-05T11:01:22.759Z,5.50
2023-03-05T11:04:03.597Z,5.40
2023-03-05T11:06:45.179Z,5.40
2023-03-05T11:09:18.545Z,5.50
2023-03-05T11:12:02.535Z,5.70
2023-03-05T11:14:31.091Z,5.30
2023-03-05T11:16:58.849Z,5.10
2023-03-05T11:19:35.940Z,5.00
2023-03-05T11:22:20.727Z,5.00
2023-03-05T11:25:18.732Z,5.20
2023-03-05T11:27:57.184Z,5.00
2023-03-05T11:30:35.323Z,5.90
2023-03-05T11:33:22.648Z,5.90
2023-03-05T11:35:51.956Z,6.00
2023-03-05T11:38:22.026Z,6.30
2023-03-05T11:40:49.544Z,5.90
2023-03-05T11:43:19.564Z,5.80
2023-03-05T11:45:49.268Z,5.90
2023-03-05T11:48:40.468Z,5.20
2023-03-05T11:51:22.593Z,5.30
2023-03-05T11:53:59.336Z,5.20
2023-03-05T11:56:41.592Z,5.70
2023-03-05T11:59:53.121Z,6.70
2023-03-05T12:02:23.333Z,6.90
2023-03-05T12:04:50.935Z,6.20
2023-03-05T12:07:54.730Z,6.20
2023-03-05T12:10:26.748Z,6.20
2023-03-05T12:13:07.047Z,6.10
2023-03-05T12:15:52.258Z,6.20
2023-03-05T12:18:41.204Z,6.00
2023-03-05T12:21:37.704Z,6.20
2023-03-05T12:24:26.683Z,6.20
2023-03-05T12:27:09.296Z,6.80
2023-03-05T12:29:50.999Z,6.80
2023-03-05T12:32:25.636Z,6.50
2023-03-05T12:35:22.348Z,6.10
2023-03-05T12:37:48.977Z,6.20
2023-03-05T12:40:15.694Z,5.80
2023-03-05T12:42:42.299Z,5.90
2023-03-05T12:45:12.029Z,6.10
2023-03-05T12:47:40.652Z,6.30
2023-03-05T12:50:30.360Z,6.80
2023-03-05T12:53:10.262Z,7.10
2023-03-05T12:55:46.174Z,7.00
2023-03-05T12:58:25.444Z,7.10
2023-03-05T13:01:14.952Z,6.90
2023-03-05T13:03:52.223Z,6.70
2023-03-05T13:06:31.062Z,6.50
2023-03-05T13:09:08.950Z,6.30
2023-03-05T13:11:37.882Z,6.20
2023-03-05T13:14:04.654Z,6.20
2023-03-05T13:16:38.908Z,6.70
2023-03-05T13:19:16.356Z,7.00
2023-03-05T13:21:43.150Z,6.90
2023-03-05T13:24:17.834Z,6.80
2023-03-05T13:26:44.639Z,6.70
2023-03-05T13:29:19.847Z,6.10
2023-03-05T13:31:59.472Z,5.70
2023-03-05T13:34:46.228Z,5.60
2023-03-05T13:37:19.716Z,5.90
2023-03-05T13:39:54.037Z,5.50
2023-03-05T13:42:31.444Z,5.50
2023-03-05T13:45:00.724Z,5.70
2023-03-05T13:47:30.010Z,5.30
2023-03-05T13:50:07.563Z,5.40
2023-03-05T13:52:36.429Z,5.70
2023-03-05T13:55:11.780Z,5.60
2023-03-05T13:57:43.956Z,5.50
2023-03-05T14:00:32.406Z,5.70
2023-03-05T14:03:27.161Z,5.60
2023-03-05T14:05:54.884Z,6.00
2023-03-05T14:08:26.653Z,5.80
2023-03-05T14:10:54.788Z,5.50
2023-03-05T14:13:25.372Z,5.20
2023-03-05T14:16:13.669Z,5.50
2023-03-05T14:18:55.034Z,5.40
2023-03-05T14:21:21.730Z,5.20
2023-03-05T14:23:52.936Z,5.00
2023-03-05T14:26:26.921Z,4.90
2023-03-05T14:29:14.320Z,4.70
2023-03-05T14:31:55.495Z,4.70
2023-03-05T14:34:31.833Z,5.00
2023-03-05T14:37:03.977Z,4.70
2023-03-05T14:39:39.687Z,4.60
2023-03-05T14:42:38.624Z,4.70
2023-03-05T14:45:23.753Z,4.50
2023-03-05T14:47:52.744Z,4.60
2023-03-05T14:50:24.010Z,4.50
2023-03-05T14:52:53.413Z,4.50
2023-03-05T14:55:23.050Z,4.40
2023-03-05T14:57:51.716Z,4.50
2023-03-05T15:00:21.283Z,4.40
2023-03-05T15:02:49.671Z,4.70
2023-03-05T15:05:16.883Z,4.50
2023-03-05T15:07:44.491Z,4.40
2023-03-05T15:10:21.176Z,4.10
2023-03-05T15:12:50.461Z,4.20
2023-03-05T15:15:21.860Z,4.40
2023-03-05T15:17:55.194Z,4.10
2023-03-05T15:20:24.761Z,4.00
2023-03-05T15:22:51.606Z,3.90
2023-03-05T15:25:19.141Z,4.00
2023-03-05T15:27:46.197Z,4.10
2023-03-05T15:30:27.274Z,4.20
2023-03-05T15:32:55.318Z,4.30
2023-03-05T15:35:22.579Z,4.30
2023-03-05T15:37:49.280Z,4.20
2023-03-05T15:40:16.391Z,4.20
2023-03-05T15:42:49.100Z,4.00
2023-03-05T15:45:16.280Z,4.00
2023-03-05T15:47:42.833Z,3.90
2023-03-05T15:50:10.076Z,4.10
2023-03-05T15:52:36.592Z,3.90
2023-03-05T15:55:03.555Z,3.90
2023-03-05T15:57:30.226Z,3.70
2023-03-05T15:59:56.855Z,3.80
2023-03-05T16:02:24.685Z,3.80
2023-03-05T16:04:51.334Z,3.50
2023-03-05T16:07:18.186Z,3.50
2023-03-05T16:09:49.972Z,3.60
2023-03-05T16:12:20.314Z,3.60
2023-03-05T16:14:48.203Z,3.50
2023-03-05T16:17:16.568Z,3.50
2023-03-05T16:19:48.806Z,3.50
2023-03-05T16:22:15.489Z,3.30
2023-03-05T16:24:42.025Z,3.40
2023-03-05T16:27:08.641Z,3.40
2023-03-05T16:29:35.255Z,3.40
2023-03-05T16:32:04.247Z,3.40
2023-03-05T16:34:32.425Z,3.50
2023-03-05T16:37:00.955Z,3.40
2023-03-05T16:39:27.886Z,3.30
2023-03-05T16:41:54.371Z,3.40
2023-03-05T16:44:21.148Z,3.30
2023-03-05T16:46:53.157Z,3.20
2023-03-05T16:49:22.856Z,3.30
2023-03-05T16:51:49.518Z,3.30
2023-03-05T16:54:16.147Z,3.30
2023-03-05T16:56:42.668Z,3.20
2023-03-05T16:59:11.550Z,3.20
2023-03-05T17:01:44.791Z,3.10
2023-03-05T17:04:11.644Z,3.20
2023-03-05T17:06:38.276Z,3.00
2023-03-05T17:09:04.877Z,2.90
2023-03-05T17:11:31.662Z,2.90
2023-03-05T17:13:58.216Z,3.00
2023-03-05T17:16:25.562Z,3.00
2023-03-05T17:18:52.152Z,2.90
2023-03-05T17:21:18.691Z,2.90
2023-03-05T17:23:45.204Z,2.90
2023-03-05T17:26:14.439Z,2.80
2023-03-05T17:28:41.692Z,2.90
2023-03-05T17:31:08.733Z,2.80
2023-03-05T17:33:37.188Z,2.80
2023-03-05T17:36:05.088Z,2.80
2023-03-05T17:38:31.901Z,2.70
2023-03-05T17:40:58.438Z,2.70
2023-03-05T17:43:24.943Z,2.90
2023-03-05T17:45:51.467Z,3.00
2023-03-05T17:48:17.938Z,2.90
2023-03-05T17:50:45.179Z,3.00
2023-03-05T17:53:12.318Z,2.80
2023-03-05T17:55:39.804Z,2.70
2023-03-05T17:58:06.449Z,2.80
2023-03-05T18:00:33.513Z,2.80
2023-03-05T18:03:00.746Z,2.90
2023-03-05T18:05:28.692Z,2.70
2023-03-05T18:07:55.895Z,2.60
2023-03-05T18:10:26.283Z,2.50
2023-03-05T18:12:53.500Z,2.50
2023-03-05T18:15:21.913Z,2.40
2023-03-05T18:17:48.557Z,2.40
2023-03-05T18:20:33.433Z,2.60
2023-03-05T18:23:01.492Z,2.50
2023-03-05T18:25:32.299Z,2.50
2023-03-05T18:28:00.503Z,2.50
2023-03-05T18:30:29.741Z,2.30
2023-03-05T18:32:56.692Z,2.30
2023-03-05T18:35:23.830Z,2.30
2023-03-05T18:37:50.580Z,2.20
2023-03-05T18:40:23.016Z,2.30
2023-03-05T18:42:50.629Z,2.20
2023-03-05T18:45:23.130Z,2.10
2023-03-05T18:47:54.274Z,2.20
2023-03-05T18:50:23.722Z,2.20
2023-03-05T18:52:50.574Z,2.30
2023-03-05T18:55:20.587Z,2.30
2023-03-05T18:57:47.481Z,2.30
2023-03-05T19:00:16.273Z,2.20
2023-03-05T19:02:43.265Z,2.20
2023-03-05T19:05:10.981Z,2.30
2023-03-05T19:07:38.146Z,2.20
2023-03-05T19:10:09.980Z,2.30
2023-03-05T19:12:45.427Z,2.30
2023-03-05T19:15:13.479Z,2.40
2023-03-05T19:17:40.349Z,2.30
2023-03-05T19:20:07.846Z,2.30
2023-03-05T19:22:35.087Z,2.20
2023-03-05T19:25:01.842Z,2.20
2023-03-05T19:27:29.824Z,2.10
2023-03-05T19:29:56.751Z,2.10
2023-03-05T19:32:24.116Z,2.00
2023-03-05T19:34:54.268Z,1.90
2023-03-05T19:37:21.330Z,2.10
2023-03-05T19:39:49.156Z,2.10
2023-03-05T19:42:16.012Z,2.20
2023-03-05T19:44:42.869Z,2.30
2023-03-05T19:47:12.244Z,2.40
2023-03-05T19:49:38.746Z,2.30
2023-03-05T19:52:08.699Z,2.20
2023-03-05T19:54:35.560Z,2.10
2023-03-05T19:57:02.920Z,2.10
2023-03-05T19:59:29.567Z,2.10
2023-03-05T20:01:57.468Z,2.10
2023-03-05T20:04:25.027Z,2.10
2023-03-05T20:06:51.673Z,2.10
2023-03-05T20:09:18.290Z,2.00
2023-03-05T20:11:47.020Z,2.10
2023-03-05T20:14:15.776Z,2.10
2023-03-05T20:16:43.507Z,2.20
2023-03-05T20:19:16.706Z,2.00
2023-03-05T20:21:44.941Z,2.10
2023-03-05T20:24:15.502Z,2.00
2023-03-05T20:26:43.752Z,2.00
2023-03-05T20:29:11.422Z,2.10
2023-03-05T20:31:38.410Z,2.10
2023-03-05T20:34:07.162Z,2.00
2023-03-05T20:36:37.072Z,2.00
2023-03-05T20:39:05.240Z,1.90
2023-03-05T20:41:33.423Z,1.90
2023-03-05T20:44:00.493Z,1.90
2023-03-05T20:46:29.769Z,2.10
2023-03-05T20:48:59.131Z,2.10
2023-03-05T20:51:29.142Z,1.90
2023-03-05T20:54:02.443Z,2.00
2023-03-05T20:56:34.102Z,2.10
2023-03-05T20:59:07.494Z,2.00
2023-03-05T21:01:39.383Z,2.00
2023-03-05T21:04:06.711Z,2.00
2023-03-05T21:06:34.631Z,2.00
2023-03-05T21:09:01.435Z,2.00
2023-03-05T21:11:28.438Z,1.90
2023-03-05T21:13:55.238Z,1.90
2023-03-05T21:16:25.560Z,1.90
2023-03-05T21:18:54.541Z,1.80
2023-03-05T21:21:21.221Z,1.90
2023-03-05T21:23:47.935Z,1.80
2023-03-05T21:26:15.199Z,1.70
2023-03-05T21:28:44.669Z,1.80
2023-03-05T21:31:39.188Z,1.90
2023-03-05T21:37:44.717Z,1.70
2023-03-05T21:40:15.710Z,1.80
2023-03-05T21:42:46.469Z,1.70
2023-03-05T21:45:19.267Z,1.80
2023-03-05T21:47:46.389Z,1.80
2023-03-05T21:50:14.760Z,1.80
2023-03-05T21:52:42.073Z,1.90
2023-03-05T21:55:12.699Z,2.00
2023-03-05T21:57:39.240Z,1.90
2023-03-05T22:00:10.804Z,1.80
2023-03-05T22:02:42.213Z,1.80
2023-03-05T22:05:16.092Z,1.90
2023-03-05T22:07:43.611Z,2.00
2023-03-05T22:10:17.648Z,1.90
2023-03-05T22:13:12.290Z,2.00
2023-03-05T22:15:46.711Z,1.90
2023-03-05T22:18:15.399Z,1.90
2023-03-05T22:20:44.821Z,2.00
2023-03-05T22:23:12.210Z,2.10
2023-03-05T22:25:39.787Z,2.10
2023-03-05T22:28:12.432Z,2.10
2023-03-05T22:30:45.973Z,2.10
2023-03-05T22:33:13.048Z,2.00
2023-03-05T22:35:41.115Z,2.10
2023-03-05T22:38:12.599Z,2.00
2023-03-05T22:40:44.717Z,2.00
2023-03-05T22:43:11.914Z,1.90
2023-03-05T22:45:39.172Z,2.00
2023-03-05T22:48:06.592Z,2.10
2023-03-05T22:50:37.530Z,2.10
2023-03-05T22:53:04.500Z,2.00
2023-03-05T22:55:33.622Z,2.00
2023-03-05T22:58:00.216Z,2.10
2023-03-05T23:00:26.907Z,2.00
2023-03-05T23:02:54.079Z,2.10
2023-03-05T23:05:21.178Z,2.10
2023-03-05T23:07:48.352Z,2.10
2023-03-05T23:10:26.422Z,2.10
2023-03-05T23:12:58.299Z,2.00
2023-03-05T23:15:30.810Z,2.20
2023-03-05T23:17:57.599Z,2.20
2023-03-05T23:20:27.801Z,2.20
2023-03-05T23:22:56.350Z,2.20
2023-03-05T23:25:27.096Z,2.20
2023-03-05T23:27:56.907Z,2.20
2023-03-05T23:30:24.622Z,2.20
2023-03-05T23:32:59.896Z,2.20
2023-03-05T23:35:35.565Z,2.00
2023-03-05T23:38:07.092Z,2.10
2023-03-05T23:40:44.535Z,2.00
2023-03-05T23:43:11.900Z,2.00
2023-03-05T23:45:41.926Z,1.90
2023-03-05T23:48:08.734Z,2.00
2023-03-05T23:50:37.468Z,1.90
2023-03-05T23:53:04.784Z,1.80
2023-03-05T23:55:34.479Z,1.80
2023-03-05T23:58:01.743Z,1.80
